This is the latest recevied weather packets stored in our database for station/object IT9IJI-15. If no packets are shown the sender has not sent any weather packets the latest 10 day(s).
| Time | Temp. | Humidity | Pressure | Rain* | Wind** | Luminosity | Snow |
|---|---|---|---|---|---|---|---|
| 1777363654 | 21.67° C | 56% | 892.9 hPa | - | - | - | - |
| 1777309660 | 20.56° C | 34% | 885 hPa | - | - | - | - |
| 1777308732 | 27.78° C | 34% | 893 hPa | - | - | - | - |
| 1777307832 | 28.33° C | 34% | 893.1 hPa | - | - | - | - |
| 1777306932 | 28.33° C | 33% | 893.1 hPa | - | - | - | - |
| 1777306034 | 28.33° C | 33% | 893.2 hPa | - | - | - | - |
| 1777305134 | 28.33° C | 34% | 893.2 hPa | - | - | - | - |
| 1777304232 | 28.33° C | 34% | 893.3 hPa | - | - | - | - |
| 1777303332 | 28.33° C | 33% | 893.2 hPa | - | - | - | - |
| 1777302434 | 28.33° C | 34% | 893.2 hPa | - | - | - | - |
| 1777301536 | 20.56° C | 34% | 884.9 hPa | - | - | - | - |
| 1777300608 | 28.33° C | 33% | 893.3 hPa | - | - | - | - |
| 1777299708 | 28.33° C | 34% | 893.4 hPa | - | - | - | - |
| 1777298808 | 28.33° C | 34% | 893.6 hPa | - | - | - | - |
| 1777297008 | 28.33° C | 34% | 893.8 hPa | - | - | - | - |
| 1777296108 | 28.33° C | 33% | 893.8 hPa | - | - | - | - |
| 1777296108 | 28.33° C | 33% | 893.8 hPa | - | - | - | - |
| 1777295208 | 28.33° C | 34% | 894 hPa | - | - | - | - |
| 1777294307 | 27.78° C | 34% | 894.1 hPa | - | - | - | - |
| 1777293407 | 21.11° C | 34% | 886.4 hPa | - | - | - | - |
| 1777292483 | 27.78° C | 34% | 894.2 hPa | - | - | - | - |
| 1777291583 | 27.78° C | 35% | 894.4 hPa | - | - | - | - |
| 1777289783 | 27.78° C | 34% | 894.4 hPa | - | - | - | - |
| 1777288883 | 27.78° C | 34% | 894.5 hPa | - | - | - | - |
| 1777287983 | 27.78° C | 34% | 894.7 hPa | - | - | - | - |
* Rain since midnight (hover to see other rain measurements)
** Current wind speed in m/s (hover to see current wind gust speed)